sensor_id;sensor_type;location;lat;lon;timestamp;P1;durP1;ratioP1;P2;durP2;ratioP2
67274;SDS011;55463;52.324;5.122;2022-12-16T00:01:13;13.57;;;6.88;;
67274;SDS011;55463;52.324;5.122;2022-12-16T00:03:40;10.30;;;5.55;;
67274;SDS011;55463;52.324;5.122;2022-12-16T00:06:07;6.72;;;3.58;;
67274;SDS011;55463;52.324;5.122;2022-12-16T00:08:33;7.25;;;3.20;;
67274;SDS011;55463;52.324;5.122;2022-12-16T00:11:01;6.07;;;2.58;;
67274;SDS011;55463;52.324;5.122;2022-12-16T00:13:28;4.32;;;2.45;;
67274;SDS011;55463;52.324;5.122;2022-12-16T00:15:54;8.02;;;2.20;;
67274;SDS011;55463;52.324;5.122;2022-12-16T00:18:20;3.28;;;2.00;;
67274;SDS011;55463;52.324;5.122;2022-12-16T00:20:51;7.60;;;2.53;;
67274;SDS011;55463;52.324;5.122;2022-12-16T00:23:18;5.78;;;2.30;;
67274;SDS011;55463;52.324;5.122;2022-12-16T00:25:45;7.82;;;2.40;;
67274;SDS011;55463;52.324;5.122;2022-12-16T00:28:11;5.05;;;2.00;;
67274;SDS011;55463;52.324;5.122;2022-12-16T00:30:37;8.05;;;2.67;;
67274;SDS011;55463;52.324;5.122;2022-12-16T00:33:04;8.00;;;2.58;;
67274;SDS011;55463;52.324;5.122;2022-12-16T00:35:29;4.72;;;2.45;;
67274;SDS011;55463;52.324;5.122;2022-12-16T00:37:56;3.60;;;2.38;;
67274;SDS011;55463;52.324;5.122;2022-12-16T00:40:21;6.78;;;2.50;;
67274;SDS011;55463;52.324;5.122;2022-12-16T00:42:47;7.75;;;2.92;;
67274;SDS011;55463;52.324;5.122;2022-12-16T00:45:12;6.13;;;2.70;;
67274;SDS011;55463;52.324;5.122;2022-12-16T00:47:38;5.88;;;2.63;;
67274;SDS011;55463;52.324;5.122;2022-12-16T00:50:03;7.88;;;2.70;;
67274;SDS011;55463;52.324;5.122;2022-12-16T00:52:29;8.68;;;2.95;;
67274;SDS011;55463;52.324;5.122;2022-12-16T00:54:54;5.57;;;2.72;;
67274;SDS011;55463;52.324;5.122;2022-12-16T00:57:20;12.50;;;3.45;;
67274;SDS011;55463;52.324;5.122;2022-12-16T00:59:46;7.38;;;3.15;;
67274;SDS011;55463;52.324;5.122;2022-12-16T01:02:11;7.25;;;2.90;;
67274;SDS011;55463;52.324;5.122;2022-12-16T01:04:37;8.57;;;3.28;;
67274;SDS011;55463;52.324;5.122;2022-12-16T01:07:02;10.57;;;3.47;;
67274;SDS011;55463;52.324;5.122;2022-12-16T01:09:27;6.07;;;3.13;;
67274;SDS011;55463;52.324;5.122;2022-12-16T01:11:52;7.97;;;3.10;;
67274;SDS011;55463;52.324;5.122;2022-12-16T01:14:18;7.07;;;2.70;;
67274;SDS011;55463;52.324;5.122;2022-12-16T01:16:43;8.65;;;2.90;;
67274;SDS011;55463;52.324;5.122;2022-12-16T01:19:09;11.00;;;2.83;;
67274;SDS011;55463;52.324;5.122;2022-12-16T01:21:35;9.02;;;2.70;;
67274;SDS011;55463;52.324;5.122;2022-12-16T01:24:00;11.73;;;2.97;;
67274;SDS011;55463;52.324;5.122;2022-12-16T01:26:26;10.77;;;2.80;;
67274;SDS011;55463;52.324;5.122;2022-12-16T01:28:51;7.75;;;2.97;;
67274;SDS011;55463;52.324;5.122;2022-12-16T01:31:17;9.80;;;3.28;;
67274;SDS011;55463;52.324;5.122;2022-12-16T01:33:44;9.05;;;3.05;;
67274;SDS011;55463;52.324;5.122;2022-12-16T01:36:10;8.05;;;3.45;;
67274;SDS011;55463;52.324;5.122;2022-12-16T01:38:35;8.98;;;3.60;;
67274;SDS011;55463;52.324;5.122;2022-12-16T01:41:02;7.05;;;3.63;;
67274;SDS011;55463;52.324;5.122;2022-12-16T01:43:29;15.10;;;3.28;;
67274;SDS011;55463;52.324;5.122;2022-12-16T01:46:19;6.03;;;2.92;;
67274;SDS011;55463;52.324;5.122;2022-12-16T01:48:47;6.53;;;3.47;;
67274;SDS011;55463;52.324;5.122;2022-12-16T01:53:44;16.88;;;4.13;;
67274;SDS011;55463;52.324;5.122;2022-12-16T01:56:13;9.10;;;3.50;;
67274;SDS011;55463;52.324;5.122;2022-12-16T01:58:41;7.40;;;3.97;;
67274;SDS011;55463;52.324;5.122;2022-12-16T02:01:08;7.10;;;3.53;;
67274;SDS011;55463;52.324;5.122;2022-12-16T02:03:34;12.52;;;4.00;;
67274;SDS011;55463;52.324;5.122;2022-12-16T02:06:01;12.57;;;3.42;;
67274;SDS011;55463;52.324;5.122;2022-12-16T02:08:29;9.55;;;4.05;;
67274;SDS011;55463;52.324;5.122;2022-12-16T02:16:31;9.23;;;4.80;;
67274;SDS011;55463;52.324;5.122;2022-12-16T02:19:18;10.48;;;4.07;;
67274;SDS011;55463;52.324;5.122;2022-12-16T02:21:51;10.50;;;3.80;;
67274;SDS011;55463;52.324;5.122;2022-12-16T02:32:29;12.32;;;3.95;;
67274;SDS011;55463;52.324;5.122;2022-12-16T02:35:23;8.02;;;3.95;;
67274;SDS011;55463;52.324;5.122;2022-12-16T02:43:15;6.50;;;2.90;;
67274;SDS011;55463;52.324;5.122;2022-12-16T02:45:58;8.88;;;3.20;;
67274;SDS011;55463;52.324;5.122;2022-12-16T02:48:24;9.50;;;3.33;;
67274;SDS011;55463;52.324;5.122;2022-12-16T02:50:50;10.65;;;3.05;;
67274;SDS011;55463;52.324;5.122;2022-12-16T02:53:17;11.13;;;3.63;;
67274;SDS011;55463;52.324;5.122;2022-12-16T03:07:02;7.18;;;2.50;;
67274;SDS011;55463;52.324;5.122;2022-12-16T03:09:31;6.28;;;2.22;;
67274;SDS011;55463;52.324;5.122;2022-12-16T03:11:58;3.75;;;2.15;;
67274;SDS011;55463;52.324;5.122;2022-12-16T03:14:30;10.85;;;2.20;;
67274;SDS011;55463;52.324;5.122;2022-12-16T03:16:58;7.97;;;2.20;;
67274;SDS011;55463;52.324;5.122;2022-12-16T03:19:24;9.57;;;2.50;;
67274;SDS011;55463;52.324;5.122;2022-12-16T03:21:54;5.93;;;2.00;;
67274;SDS011;55463;52.324;5.122;2022-12-16T03:24:24;5.72;;;2.63;;
67274;SDS011;55463;52.324;5.122;2022-12-16T03:29:29;5.22;;;2.00;;
67274;SDS011;55463;52.324;5.122;2022-12-16T03:32:23;7.55;;;2.70;;
67274;SDS011;55463;52.324;5.122;2022-12-16T03:34:58;10.70;;;3.22;;
67274;SDS011;55463;52.324;5.122;2022-12-16T03:37:45;9.73;;;2.33;;
67274;SDS011;55463;52.324;5.122;2022-12-16T03:40:13;9.52;;;2.30;;
67274;SDS011;55463;52.324;5.122;2022-12-16T03:42:40;10.40;;;2.63;;
67274;SDS011;55463;52.324;5.122;2022-12-16T03:45:07;5.05;;;2.53;;
67274;SDS011;55463;52.324;5.122;2022-12-16T03:47:38;7.07;;;2.67;;
67274;SDS011;55463;52.324;5.122;2022-12-16T03:50:04;8.30;;;2.40;;
67274;SDS011;55463;52.324;5.122;2022-12-16T03:52:29;8.23;;;2.40;;
67274;SDS011;55463;52.324;5.122;2022-12-16T03:54:55;8.70;;;2.30;;
67274;SDS011;55463;52.324;5.122;2022-12-16T03:57:20;7.78;;;2.33;;
67274;SDS011;55463;52.324;5.122;2022-12-16T03:59:46;9.18;;;2.55;;
67274;SDS011;55463;52.324;5.122;2022-12-16T04:02:11;12.35;;;2.30;;
67274;SDS011;55463;52.324;5.122;2022-12-16T04:04:37;7.88;;;2.92;;
67274;SDS011;55463;52.324;5.122;2022-12-16T04:07:02;8.35;;;2.60;;
67274;SDS011;55463;52.324;5.122;2022-12-16T04:09:46;5.03;;;2.38;;
67274;SDS011;55463;52.324;5.122;2022-12-16T04:12:12;6.57;;;2.83;;
67274;SDS011;55463;52.324;5.122;2022-12-16T04:14:56;12.18;;;2.95;;
67274;SDS011;55463;52.324;5.122;2022-12-16T04:17:40;8.80;;;2.85;;
67274;SDS011;55463;52.324;5.122;2022-12-16T04:20:25;8.32;;;2.63;;
67274;SDS011;55463;52.324;5.122;2022-12-16T04:23:12;5.18;;;2.65;;
67274;SDS011;55463;52.324;5.122;2022-12-16T04:25:57;10.00;;;3.33;;
67274;SDS011;55463;52.324;5.122;2022-12-16T04:28:22;6.22;;;2.60;;
67274;SDS011;55463;52.324;5.122;2022-12-16T04:30:48;6.95;;;3.15;;
67274;SDS011;55463;52.324;5.122;2022-12-16T04:33:14;10.90;;;2.80;;
67274;SDS011;55463;52.324;5.122;2022-12-16T04:35:58;7.78;;;3.10;;
67274;SDS011;55463;52.324;5.122;2022-12-16T04:38:42;8.32;;;3.20;;
67274;SDS011;55463;52.324;5.122;2022-12-16T04:41:26;6.57;;;3.17;;
67274;SDS011;55463;52.324;5.122;2022-12-16T04:44:10;6.68;;;2.75;;
67274;SDS011;55463;52.324;5.122;2022-12-16T04:46:54;9.15;;;2.80;;
67274;SDS011;55463;52.324;5.122;2022-12-16T04:49:38;10.82;;;3.03;;
67274;SDS011;55463;52.324;5.122;2022-12-16T04:52:22;9.43;;;3.13;;
67274;SDS011;55463;52.324;5.122;2022-12-16T04:55:07;9.07;;;3.08;;
67274;SDS011;55463;52.324;5.122;2022-12-16T04:57:52;10.55;;;3.40;;
67274;SDS011;55463;52.324;5.122;2022-12-16T05:00:38;7.25;;;3.75;;
67274;SDS011;55463;52.324;5.122;2022-12-16T05:03:22;13.15;;;3.53;;
67274;SDS011;55463;52.324;5.122;2022-12-16T05:06:06;4.90;;;2.65;;
67274;SDS011;55463;52.324;5.122;2022-12-16T05:08:50;10.95;;;3.00;;
67274;SDS011;55463;52.324;5.122;2022-12-16T05:11:35;8.13;;;2.97;;
67274;SDS011;55463;52.324;5.122;2022-12-16T05:14:19;7.00;;;3.00;;
67274;SDS011;55463;52.324;5.122;2022-12-16T05:17:03;10.02;;;3.30;;
67274;SDS011;55463;52.324;5.122;2022-12-16T05:19:47;10.27;;;3.03;;
67274;SDS011;55463;52.324;5.122;2022-12-16T05:22:31;13.10;;;2.83;;
67274;SDS011;55463;52.324;5.122;2022-12-16T05:25:15;11.88;;;3.60;;
67274;SDS011;55463;52.324;5.122;2022-12-16T05:27:59;6.70;;;2.72;;
67274;SDS011;55463;52.324;5.122;2022-12-16T05:30:43;7.70;;;3.10;;
67274;SDS011;55463;52.324;5.122;2022-12-16T05:33:28;8.65;;;2.90;;
67274;SDS011;55463;52.324;5.122;2022-12-16T05:36:12;12.65;;;3.10;;
67274;SDS011;55463;52.324;5.122;2022-12-16T05:38:56;12.25;;;3.30;;
67274;SDS011;55463;52.324;5.122;2022-12-16T05:41:40;5.10;;;3.03;;
67274;SDS011;55463;52.324;5.122;2022-12-16T05:44:24;7.47;;;3.47;;
67274;SDS011;55463;52.324;5.122;2022-12-16T05:47:08;6.07;;;3.50;;
67274;SDS011;55463;52.324;5.122;2022-12-16T05:49:53;8.63;;;3.53;;
67274;SDS011;55463;52.324;5.122;2022-12-16T05:52:36;9.00;;;3.42;;
67274;SDS011;55463;52.324;5.122;2022-12-16T05:55:21;7.30;;;2.80;;
67274;SDS011;55463;52.324;5.122;2022-12-16T05:58:04;8.48;;;3.10;;
67274;SDS011;55463;52.324;5.122;2022-12-16T06:00:48;11.93;;;3.42;;
67274;SDS011;55463;52.324;5.122;2022-12-16T06:03:32;6.38;;;2.53;;
67274;SDS011;55463;52.324;5.122;2022-12-16T06:06:16;6.32;;;2.83;;
67274;SDS011;55463;52.324;5.122;2022-12-16T06:09:00;9.00;;;3.60;;
67274;SDS011;55463;52.324;5.122;2022-12-16T06:11:44;7.25;;;2.80;;
67274;SDS011;55463;52.324;5.122;2022-12-16T06:14:28;11.80;;;3.10;;
67274;SDS011;55463;52.324;5.122;2022-12-16T06:17:12;11.73;;;3.25;;
67274;SDS011;55463;52.324;5.122;2022-12-16T06:19:56;6.80;;;2.83;;
67274;SDS011;55463;52.324;5.122;2022-12-16T06:22:39;9.70;;;3.25;;
67274;SDS011;55463;52.324;5.122;2022-12-16T06:25:24;7.10;;;3.10;;
67274;SDS011;55463;52.324;5.122;2022-12-16T06:28:07;11.48;;;3.83;;
67274;SDS011;55463;52.324;5.122;2022-12-16T06:30:51;8.00;;;3.20;;
67274;SDS011;55463;52.324;5.122;2022-12-16T06:33:35;13.80;;;4.35;;
67274;SDS011;55463;52.324;5.122;2022-12-16T06:36:20;13.05;;;3.65;;
67274;SDS011;55463;52.324;5.122;2022-12-16T06:39:04;10.35;;;3.05;;
67274;SDS011;55463;52.324;5.122;2022-12-16T06:41:48;6.15;;;2.72;;
67274;SDS011;55463;52.324;5.122;2022-12-16T06:44:32;15.95;;;3.92;;
67274;SDS011;55463;52.324;5.122;2022-12-16T06:47:15;6.90;;;2.92;;
67274;SDS011;55463;52.324;5.122;2022-12-16T06:50:00;7.15;;;3.30;;
67274;SDS011;55463;52.324;5.122;2022-12-16T06:52:44;10.82;;;3.03;;
67274;SDS011;55463;52.324;5.122;2022-12-16T06:55:27;6.25;;;2.95;;
67274;SDS011;55463;52.324;5.122;2022-12-16T06:58:12;10.20;;;3.15;;
67274;SDS011;55463;52.324;5.122;2022-12-16T07:00:56;6.63;;;3.05;;
67274;SDS011;55463;52.324;5.122;2022-12-16T07:03:40;10.40;;;2.80;;
67274;SDS011;55463;52.324;5.122;2022-12-16T07:06:24;6.18;;;2.60;;
67274;SDS011;55463;52.324;5.122;2022-12-16T07:09:08;11.05;;;3.05;;
67274;SDS011;55463;52.324;5.122;2022-12-16T07:11:52;8.77;;;2.83;;
67274;SDS011;55463;52.324;5.122;2022-12-16T07:14:35;4.65;;;3.33;;
67274;SDS011;55463;52.324;5.122;2022-12-16T07:17:19;5.43;;;2.95;;
67274;SDS011;55463;52.324;5.122;2022-12-16T07:20:03;6.78;;;3.00;;
67274;SDS011;55463;52.324;5.122;2022-12-16T07:22:48;8.70;;;3.10;;
67274;SDS011;55463;52.324;5.122;2022-12-16T07:25:31;6.82;;;2.95;;
67274;SDS011;55463;52.324;5.122;2022-12-16T07:28:15;9.50;;;3.35;;
67274;SDS011;55463;52.324;5.122;2022-12-16T07:30:59;7.93;;;2.67;;
67274;SDS011;55463;52.324;5.122;2022-12-16T07:33:43;4.20;;;2.40;;
67274;SDS011;55463;52.324;5.122;2022-12-16T07:36:27;5.15;;;2.95;;
67274;SDS011;55463;52.324;5.122;2022-12-16T07:39:11;12.15;;;3.97;;
67274;SDS011;55463;52.324;5.122;2022-12-16T07:41:55;8.98;;;3.10;;
67274;SDS011;55463;52.324;5.122;2022-12-16T07:44:38;11.40;;;2.58;;
67274;SDS011;55463;52.324;5.122;2022-12-16T07:47:22;6.70;;;2.80;;
67274;SDS011;55463;52.324;5.122;2022-12-16T07:50:06;10.13;;;2.67;;
67274;SDS011;55463;52.324;5.122;2022-12-16T07:52:57;7.85;;;2.97;;
67274;SDS011;55463;52.324;5.122;2022-12-16T07:55:43;4.50;;;2.80;;
67274;SDS011;55463;52.324;5.122;2022-12-16T07:58:28;6.03;;;3.42;;
67274;SDS011;55463;52.324;5.122;2022-12-16T08:01:12;6.28;;;2.65;;
67274;SDS011;55463;52.324;5.122;2022-12-16T08:03:56;5.65;;;3.10;;
67274;SDS011;55463;52.324;5.122;2022-12-16T08:06:40;11.05;;;3.28;;
67274;SDS011;55463;52.324;5.122;2022-12-16T08:09:24;7.38;;;2.40;;
67274;SDS011;55463;52.324;5.122;2022-12-16T08:12:08;7.35;;;2.60;;
67274;SDS011;55463;52.324;5.122;2022-12-16T08:14:52;8.38;;;2.83;;
67274;SDS011;55463;52.324;5.122;2022-12-16T08:17:36;8.93;;;2.75;;
67274;SDS011;55463;52.324;5.122;2022-12-16T08:20:20;4.65;;;2.17;;
67274;SDS011;55463;52.324;5.122;2022-12-16T08:23:04;3.47;;;2.20;;
67274;SDS011;55463;52.324;5.122;2022-12-16T08:25:48;6.85;;;2.35;;
67274;SDS011;55463;52.324;5.122;2022-12-16T08:28:32;9.40;;;2.60;;
67274;SDS011;55463;52.324;5.122;2022-12-16T08:31:17;4.18;;;2.15;;
67274;SDS011;55463;52.324;5.122;2022-12-16T08:34:01;5.13;;;2.53;;
67274;SDS011;55463;52.324;5.122;2022-12-16T08:36:45;10.75;;;3.10;;
67274;SDS011;55463;52.324;5.122;2022-12-16T08:39:29;5.20;;;2.40;;
67274;SDS011;55463;52.324;5.122;2022-12-16T08:42:13;5.00;;;2.90;;
67274;SDS011;55463;52.324;5.122;2022-12-16T08:44:57;6.22;;;2.50;;
67274;SDS011;55463;52.324;5.122;2022-12-16T08:47:41;6.38;;;2.55;;
67274;SDS011;55463;52.324;5.122;2022-12-16T08:50:25;10.38;;;2.85;;
67274;SDS011;55463;52.324;5.122;2022-12-16T08:53:09;5.82;;;2.50;;
67274;SDS011;55463;52.324;5.122;2022-12-16T08:55:53;5.15;;;2.40;;
67274;SDS011;55463;52.324;5.122;2022-12-16T08:58:37;8.07;;;2.70;;
67274;SDS011;55463;52.324;5.122;2022-12-16T09:01:20;10.95;;;2.50;;
67274;SDS011;55463;52.324;5.122;2022-12-16T09:04:04;7.22;;;3.30;;
67274;SDS011;55463;52.324;5.122;2022-12-16T09:06:48;3.13;;;2.50;;
67274;SDS011;55463;52.324;5.122;2022-12-16T09:09:43;5.35;;;2.50;;
67274;SDS011;55463;52.324;5.122;2022-12-16T09:12:27;6.72;;;2.50;;
67274;SDS011;55463;52.324;5.122;2022-12-16T09:15:11;5.43;;;2.40;;
67274;SDS011;55463;52.324;5.122;2022-12-16T09:17:55;8.40;;;2.70;;
67274;SDS011;55463;52.324;5.122;2022-12-16T09:20:39;14.35;;;2.85;;
67274;SDS011;55463;52.324;5.122;2022-12-16T09:23:23;10.98;;;3.20;;
67274;SDS011;55463;52.324;5.122;2022-12-16T09:26:07;7.57;;;2.70;;
67274;SDS011;55463;52.324;5.122;2022-12-16T09:28:51;10.07;;;3.33;;
67274;SDS011;55463;52.324;5.122;2022-12-16T09:31:35;5.38;;;3.20;;
67274;SDS011;55463;52.324;5.122;2022-12-16T09:34:19;8.98;;;3.17;;
67274;SDS011;55463;52.324;5.122;2022-12-16T09:37:03;6.60;;;2.95;;
67274;SDS011;55463;52.324;5.122;2022-12-16T09:39:47;7.65;;;3.00;;
67274;SDS011;55463;52.324;5.122;2022-12-16T09:45:48;4.68;;;2.75;;
67274;SDS011;55463;52.324;5.122;2022-12-16T09:51:47;6.18;;;2.90;;
67274;SDS011;55463;52.324;5.122;2022-12-16T09:54:34;6.65;;;3.40;;
67274;SDS011;55463;52.324;5.122;2022-12-16T09:57:19;6.55;;;3.63;;
67274;SDS011;55463;52.324;5.122;2022-12-16T10:00:06;5.63;;;3.55;;
67274;SDS011;55463;52.324;5.122;2022-12-16T10:02:58;6.03;;;2.92;;
67274;SDS011;55463;52.324;5.122;2022-12-16T10:05:50;7.38;;;3.38;;
67274;SDS011;55463;52.324;5.122;2022-12-16T10:08:49;6.75;;;3.10;;
67274;SDS011;55463;52.324;5.122;2022-12-16T10:14:37;8.38;;;2.75;;
67274;SDS011;55463;52.324;5.122;2022-12-16T10:17:33;5.70;;;2.85;;
67274;SDS011;55463;52.324;5.122;2022-12-16T10:26:56;5.68;;;3.10;;
67274;SDS011;55463;52.324;5.122;2022-12-16T10:29:59;12.40;;;3.42;;
67274;SDS011;55463;52.324;5.122;2022-12-16T10:32:48;5.63;;;3.03;;
67274;SDS011;55463;52.324;5.122;2022-12-16T10:35:51;9.13;;;3.30;;
67274;SDS011;55463;52.324;5.122;2022-12-16T10:38:41;8.40;;;3.30;;
67274;SDS011;55463;52.324;5.122;2022-12-16T10:41:36;7.43;;;3.55;;
67274;SDS011;55463;52.324;5.122;2022-12-16T10:44:24;7.60;;;3.30;;
67274;SDS011;55463;52.324;5.122;2022-12-16T10:47:14;6.72;;;3.30;;
67274;SDS011;55463;52.324;5.122;2022-12-16T10:49:58;11.98;;;3.83;;
67274;SDS011;55463;52.324;5.122;2022-12-16T10:52:49;8.23;;;3.00;;
67274;SDS011;55463;52.324;5.122;2022-12-16T10:58:45;5.38;;;3.30;;
67274;SDS011;55463;52.324;5.122;2022-12-16T11:01:37;6.25;;;3.30;;
67274;SDS011;55463;52.324;5.122;2022-12-16T11:13:11;8.10;;;3.80;;
67274;SDS011;55463;52.324;5.122;2022-12-16T11:16:04;8.45;;;4.30;;
67274;SDS011;55463;52.324;5.122;2022-12-16T11:18:53;6.57;;;4.03;;
67274;SDS011;55463;52.324;5.122;2022-12-16T11:21:37;10.35;;;4.65;;
67274;SDS011;55463;52.324;5.122;2022-12-16T11:24:21;7.68;;;4.53;;
67274;SDS011;55463;52.324;5.122;2022-12-16T11:27:09;8.40;;;4.45;;
67274;SDS011;55463;52.324;5.122;2022-12-16T11:29:58;9.50;;;5.20;;
67274;SDS011;55463;52.324;5.122;2022-12-16T11:32:53;8.80;;;5.80;;
67274;SDS011;55463;52.324;5.122;2022-12-16T11:35:40;10.40;;;5.65;;
67274;SDS011;55463;52.324;5.122;2022-12-16T11:38:35;10.45;;;5.47;;
67274;SDS011;55463;52.324;5.122;2022-12-16T11:41:25;8.48;;;6.20;;
67274;SDS011;55463;52.324;5.122;2022-12-16T11:44:14;11.07;;;6.57;;
67274;SDS011;55463;52.324;5.122;2022-12-16T11:47:01;9.80;;;5.93;;
67274;SDS011;55463;52.324;5.122;2022-12-16T11:49:45;12.52;;;6.97;;
67274;SDS011;55463;52.324;5.122;2022-12-16T11:52:29;12.02;;;6.28;;
67274;SDS011;55463;52.324;5.122;2022-12-16T11:58:24;13.02;;;7.40;;
67274;SDS011;55463;52.324;5.122;2022-12-16T12:04:25;12.95;;;6.63;;
67274;SDS011;55463;52.324;5.122;2022-12-16T12:10:32;8.55;;;5.15;;
67274;SDS011;55463;52.324;5.122;2022-12-16T12:13:51;8.43;;;5.28;;
67274;SDS011;55463;52.324;5.122;2022-12-16T12:17:03;11.45;;;5.13;;
67274;SDS011;55463;52.324;5.122;2022-12-16T12:20:10;9.65;;;6.28;;
67274;SDS011;55463;52.324;5.122;2022-12-16T12:23:31;9.77;;;6.10;;
67274;SDS011;55463;52.324;5.122;2022-12-16T12:26:25;12.20;;;6.45;;
67274;SDS011;55463;52.324;5.122;2022-12-16T12:29:16;10.70;;;7.38;;
67274;SDS011;55463;52.324;5.122;2022-12-16T12:47:23;15.90;;;10.30;;
67274;SDS011;55463;52.324;5.122;2022-12-16T12:50:16;18.10;;;9.77;;
67274;SDS011;55463;52.324;5.122;2022-12-16T12:56:49;14.85;;;9.80;;
67274;SDS011;55463;52.324;5.122;2022-12-16T12:59:41;18.80;;;9.82;;
67274;SDS011;55463;52.324;5.122;2022-12-16T13:02:38;19.02;;;9.65;;
67274;SDS011;55463;52.324;5.122;2022-12-16T13:05:27;14.50;;;9.85;;
67274;SDS011;55463;52.324;5.122;2022-12-16T13:08:31;16.55;;;10.23;;
67274;SDS011;55463;52.324;5.122;2022-12-16T13:11:18;15.98;;;9.82;;
67274;SDS011;55463;52.324;5.122;2022-12-16T13:14:11;19.77;;;10.48;;
67274;SDS011;55463;52.324;5.122;2022-12-16T13:17:18;17.30;;;10.18;;
67274;SDS011;55463;52.324;5.122;2022-12-16T13:20:04;14.93;;;10.52;;
67274;SDS011;55463;52.324;5.122;2022-12-16T13:26:10;19.08;;;8.38;;
67274;SDS011;55463;52.324;5.122;2022-12-16T13:29:05;12.85;;;8.18;;
67274;SDS011;55463;52.324;5.122;2022-12-16T13:38:03;13.10;;;6.85;;
67274;SDS011;55463;52.324;5.122;2022-12-16T13:41:02;11.15;;;6.40;;
67274;SDS011;55463;52.324;5.122;2022-12-16T13:43:49;14.60;;;6.63;;
67274;SDS011;55463;52.324;5.122;2022-12-16T13:46:54;12.15;;;6.30;;
67274;SDS011;55463;52.324;5.122;2022-12-16T13:49:40;14.27;;;7.03;;
67274;SDS011;55463;52.324;5.122;2022-12-16T13:58:14;12.55;;;7.28;;
67274;SDS011;55463;52.324;5.122;2022-12-16T14:01:21;12.20;;;6.57;;
67274;SDS011;55463;52.324;5.122;2022-12-16T14:04:14;17.65;;;6.78;;
67274;SDS011;55463;52.324;5.122;2022-12-16T14:07:08;9.98;;;5.68;;
67274;SDS011;55463;52.324;5.122;2022-12-16T14:09:52;8.60;;;5.57;;
67274;SDS011;55463;52.324;5.122;2022-12-16T14:12:44;9.27;;;5.78;;
67274;SDS011;55463;52.324;5.122;2022-12-16T14:22:30;5.38;;;3.35;;
67274;SDS011;55463;52.324;5.122;2022-12-16T14:25:21;8.52;;;3.78;;
67274;SDS011;55463;52.324;5.122;2022-12-16T14:28:52;8.93;;;3.90;;
67274;SDS011;55463;52.324;5.122;2022-12-16T14:31:16;6.50;;;3.88;;
67274;SDS011;55463;52.324;5.122;2022-12-16T14:34:04;6.88;;;3.47;;
67274;SDS011;55463;52.324;5.122;2022-12-16T14:37:05;5.30;;;3.58;;
67274;SDS011;55463;52.324;5.122;2022-12-16T14:40:00;6.22;;;3.63;;
67274;SDS011;55463;52.324;5.122;2022-12-16T14:42:45;7.93;;;3.40;;
67274;SDS011;55463;52.324;5.122;2022-12-16T14:45:37;5.38;;;3.38;;
67274;SDS011;55463;52.324;5.122;2022-12-16T14:56:59;6.30;;;3.90;;
67274;SDS011;55463;52.324;5.122;2022-12-16T14:59:43;9.50;;;4.03;;
67274;SDS011;55463;52.324;5.122;2022-12-16T15:02:28;10.20;;;3.88;;
67274;SDS011;55463;52.324;5.122;2022-12-16T15:05:16;10.23;;;4.82;;
67274;SDS011;55463;52.324;5.122;2022-12-16T15:08:01;8.38;;;3.95;;
67274;SDS011;55463;52.324;5.122;2022-12-16T15:10:45;6.53;;;4.22;;
67274;SDS011;55463;52.324;5.122;2022-12-16T15:13:29;6.82;;;4.25;;
67274;SDS011;55463;52.324;5.122;2022-12-16T15:16:18;9.25;;;4.38;;
67274;SDS011;55463;52.324;5.122;2022-12-16T15:19:15;8.15;;;4.22;;
67274;SDS011;55463;52.324;5.122;2022-12-16T15:22:02;7.68;;;4.38;;
67274;SDS011;55463;52.324;5.122;2022-12-16T15:24:46;8.38;;;4.32;;
67274;SDS011;55463;52.324;5.122;2022-12-16T15:27:36;9.23;;;4.15;;
67274;SDS011;55463;52.324;5.122;2022-12-16T15:30:30;12.30;;;5.03;;
67274;SDS011;55463;52.324;5.122;2022-12-16T15:33:29;12.68;;;5.05;;
67274;SDS011;55463;52.324;5.122;2022-12-16T15:36:21;9.18;;;5.15;;
67274;SDS011;55463;52.324;5.122;2022-12-16T15:42:25;11.05;;;4.45;;
67274;SDS011;55463;52.324;5.122;2022-12-16T15:45:15;13.07;;;5.18;;
67274;SDS011;55463;52.324;5.122;2022-12-16T15:51:19;9.38;;;5.10;;
67274;SDS011;55463;52.324;5.122;2022-12-16T15:54:03;6.80;;;5.18;;
67274;SDS011;55463;52.324;5.122;2022-12-16T15:56:48;11.10;;;5.47;;
67274;SDS011;55463;52.324;5.122;2022-12-16T15:59:35;8.73;;;5.18;;
67274;SDS011;55463;52.324;5.122;2022-12-16T16:02:33;10.45;;;5.28;;
67274;SDS011;55463;52.324;5.122;2022-12-16T16:05:18;8.95;;;5.53;;
67274;SDS011;55463;52.324;5.122;2022-12-16T16:08:04;15.45;;;5.90;;
67274;SDS011;55463;52.324;5.122;2022-12-16T16:10:48;10.32;;;5.72;;
67274;SDS011;55463;52.324;5.122;2022-12-16T16:13:32;9.80;;;5.40;;
67274;SDS011;55463;52.324;5.122;2022-12-16T16:16:16;11.57;;;5.80;;
67274;SDS011;55463;52.324;5.122;2022-12-16T16:19:01;12.75;;;6.43;;
67274;SDS011;55463;52.324;5.122;2022-12-16T16:21:45;12.23;;;6.30;;
67274;SDS011;55463;52.324;5.122;2022-12-16T16:24:29;10.13;;;6.60;;
67274;SDS011;55463;52.324;5.122;2022-12-16T16:27:14;16.40;;;7.35;;
67274;SDS011;55463;52.324;5.122;2022-12-16T16:29:59;14.07;;;7.80;;
67274;SDS011;55463;52.324;5.122;2022-12-16T16:32:44;15.93;;;8.40;;
67274;SDS011;55463;52.324;5.122;2022-12-16T16:35:31;17.88;;;10.10;;
67274;SDS011;55463;52.324;5.122;2022-12-16T16:38:16;13.07;;;8.43;;
67274;SDS011;55463;52.324;5.122;2022-12-16T16:41:01;18.63;;;8.70;;
67274;SDS011;55463;52.324;5.122;2022-12-16T16:43:45;16.02;;;8.45;;
67274;SDS011;55463;52.324;5.122;2022-12-16T16:46:30;16.20;;;8.55;;
67274;SDS011;55463;52.324;5.122;2022-12-16T16:49:24;16.75;;;7.80;;
67274;SDS011;55463;52.324;5.122;2022-12-16T16:52:13;14.98;;;7.35;;
67274;SDS011;55463;52.324;5.122;2022-12-16T16:55:07;15.50;;;7.50;;
67274;SDS011;55463;52.324;5.122;2022-12-16T16:57:58;12.40;;;7.72;;
67274;SDS011;55463;52.324;5.122;2022-12-16T17:00:41;19.10;;;8.00;;
67274;SDS011;55463;52.324;5.122;2022-12-16T17:03:25;17.73;;;9.00;;
67274;SDS011;55463;52.324;5.122;2022-12-16T17:06:09;20.88;;;8.82;;
67274;SDS011;55463;52.324;5.122;2022-12-16T17:08:53;16.92;;;8.82;;
67274;SDS011;55463;52.324;5.122;2022-12-16T17:11:40;14.00;;;8.07;;
67274;SDS011;55463;52.324;5.122;2022-12-16T17:14:24;14.23;;;8.30;;
67274;SDS011;55463;52.324;5.122;2022-12-16T17:17:08;14.05;;;7.50;;
67274;SDS011;55463;52.324;5.122;2022-12-16T17:19:53;18.60;;;8.30;;
67274;SDS011;55463;52.324;5.122;2022-12-16T17:22:36;15.70;;;8.57;;
67274;SDS011;55463;52.324;5.122;2022-12-16T17:25:20;22.20;;;8.52;;
67274;SDS011;55463;52.324;5.122;2022-12-16T17:28:04;15.23;;;9.18;;
67274;SDS011;55463;52.324;5.122;2022-12-16T17:30:49;15.70;;;9.00;;
67274;SDS011;55463;52.324;5.122;2022-12-16T17:33:32;16.25;;;9.77;;
67274;SDS011;55463;52.324;5.122;2022-12-16T17:36:16;48.08;;;26.25;;
67274;SDS011;55463;52.324;5.122;2022-12-16T17:39:01;79.57;;;41.50;;
67274;SDS011;55463;52.324;5.122;2022-12-16T17:41:47;46.05;;;25.88;;
67274;SDS011;55463;52.324;5.122;2022-12-16T17:44:30;44.40;;;25.23;;
67274;SDS011;55463;52.324;5.122;2022-12-16T17:47:15;56.40;;;28.95;;
67274;SDS011;55463;52.324;5.122;2022-12-16T17:49:58;71.18;;;41.50;;
67274;SDS011;55463;52.324;5.122;2022-12-16T17:52:42;64.68;;;34.63;;
67274;SDS011;55463;52.324;5.122;2022-12-16T17:55:26;38.05;;;21.25;;
67274;SDS011;55463;52.324;5.122;2022-12-16T17:58:10;35.65;;;21.35;;
67274;SDS011;55463;52.324;5.122;2022-12-16T18:00:59;44.15;;;22.65;;
67274;SDS011;55463;52.324;5.122;2022-12-16T18:03:46;35.20;;;17.88;;
67274;SDS011;55463;52.324;5.122;2022-12-16T18:06:33;42.83;;;23.27;;
67274;SDS011;55463;52.324;5.122;2022-12-16T18:09:18;40.10;;;22.35;;
67274;SDS011;55463;52.324;5.122;2022-12-16T18:12:02;56.72;;;27.95;;
67274;SDS011;55463;52.324;5.122;2022-12-16T18:14:45;30.80;;;17.00;;
67274;SDS011;55463;52.324;5.122;2022-12-16T18:17:29;38.67;;;18.30;;
67274;SDS011;55463;52.324;5.122;2022-12-16T18:20:13;35.78;;;19.60;;